TimePDT,TemperatureF,Dew PointF,Humidity,Sea Level PressureIn,VisibilityMPH,Wind Direction,Wind SpeedMPH,Gust SpeedMPH,PrecipitationIn,Events,Conditions,WindDirDegrees,DateUTC
12:53 AM,82.0,43.0,25,29.83,10.0,NW,9.2,-,N/A,,Clear,310,2013-05-21 07:53:00
1:53 AM,81.0,41.0,24,29.82,10.0,NW,8.1,-,N/A,,Clear,320,2013-05-21 08:53:00
2:53 AM,80.1,42.1,26,29.81,10.0,NNW,9.2,-,N/A,,Clear,330,2013-05-21 09:53:00
3:53 AM,78.1,41.0,27,29.81,10.0,NNW,9.2,-,N/A,,Clear,330,2013-05-21 10:53:00
4:53 AM,77.0,39.9,26,29.81,10.0,NW,6.9,-,N/A,,Clear,320,2013-05-21 11:53:00
5:53 AM,75.0,39.0,27,29.81,10.0,NNW,8.1,-,N/A,,Clear,330,2013-05-21 12:53:00
6:53 AM,75.9,39.0,26,29.83,10.0,NNW,8.1,-,N/A,,Clear,330,2013-05-21 13:53:00
7:53 AM,79.0,48.0,34,29.83,10.0,Calm,Calm,-,N/A,,Clear,0,2013-05-21 14:53:00
8:53 AM,87.1,32.0,14,29.83,10.0,Calm,Calm,-,N/A,,Clear,0,2013-05-21 15:53:00
9:53 AM,91.0,28.9,11,29.82,10.0,East,3.5,-,N/A,,Clear,100,2013-05-21 16:53:00
10:53 AM,93.9,27.0,9,29.80,10.0,ESE,5.8,-,N/A,,Scattered Clouds,110,2013-05-21 17:53:00
11:53 AM,96.1,24.1,8,29.79,10.0,SSE,6.9,-,N/A,,Clear,160,2013-05-21 18:53:00
12:53 PM,98.1,26.1,8,29.76,10.0,Variable,5.8,-,N/A,,Clear,0,2013-05-21 19:53:00
1:53 PM,100.0,26.1,7,29.74,10.0,Variable,4.6,-,N/A,,Clear,0,2013-05-21 20:53:00
2:53 PM,100.9,27.0,7,29.71,10.0,Variable,3.5,-,N/A,,Clear,0,2013-05-21 21:53:00
3:53 PM,102.0,30.0,8,29.68,10.0,SE,11.5,-,N/A,,Clear,130,2013-05-21 22:53:00
4:53 PM,100.9,30.9,9,29.65,10.0,ESE,9.2,16.1,N/A,,Mostly Cloudy,120,2013-05-21 23:53:00
5:50 PM,100.4,37.4,11,29.64,10.0,North,11.5,27.6,N/A,,Mostly Cloudy,350,2013-05-22 00:50:00
5:53 PM,99.0,39.0,13,29.63,10.0,NW,13.8,24.2,N/A,,Mostly Cloudy,320,2013-05-22 00:53:00
6:53 PM,97.0,36.0,12,29.63,10.0,NW,18.4,24.2,N/A,,Scattered Clouds,320,2013-05-22 01:53:00
7:53 PM,93.0,32.0,12,29.64,10.0,NW,9.2,16.1,N/A,,Scattered Clouds,320,2013-05-22 02:53:00
8:53 PM,90.0,36.0,15,29.66,10.0,North,10.4,21.9,N/A,,Clear,350,2013-05-22 03:53:00
9:53 PM,88.0,35.1,15,29.68,10.0,Calm,Calm,-,N/A,,Clear,0,2013-05-22 04:53:00
10:53 PM,82.9,36.0,19,29.67,10.0,SSE,5.8,-,N/A,,Clear,160,2013-05-22 05:53:00
11:53 PM,82.0,37.9,21,29.67,10.0,West,3.5,-,N/A,,Clear,280,2013-05-22 06:53:00